Morehouse, MO (63868)

11:49 PM CST on February 08, 2016 (GMT -0600)
SEMO Electric Coop | | Change Station
CLOSE
Current Station
Personal Weather Station
Location: Sikeston, MO
Elevation: 338 ft
Nearby Weather Stations

Elev 338 ft 36.85 °N, 89.58 °W | Updated 8 minutes ago

Overcast
Overcast
29.2 °F
Feels Like 22 °F
N
7.0
Wind Variable Wind from NNW
Gusts 7.0 mph

Today
High -- | Low -- °F
--% Chance of Precip.
Yesterday
High -- | Low -- °F
Precip. -- in
Pressure 29.95 in
Visibility 10.0 miles
Clouds Overcast 4100 ft
Windchill 22 °F
Dew Point 18 °F
Humidity 64%
Rainfall 0.00 in
Snow Depth Not available.
6:55 AM 5:31 PM
New Moon, 1% visible
METAR KCGI 090453Z AUTO 32011KT 10SM OVC041 M02/M10 A2994 RMK AO2 SLP141 T10221100
Pressure 29.95 in
Visibility 10.0 miles
Clouds Overcast 4100 ft
Windchill 22 °F
Dew Point 18 °F
Humidity 64%
Rainfall 0.00 in
Snow Depth Not available.
6:55 AM 5:31 PM
New Moon, 1% visible
METAR KCGI 090453Z AUTO 32011KT 10SM OVC041 M02/M10 A2994 RMK AO2 SLP141 T10221100

10-Day Weather Forecast

Almanac

Astronomy

Feb. 08, 2016 Rise Set
Actual Time
Civil Twilight
Nautical Twilight
Astronomical Twilight
Moon
Length of Visible Light
Length of Day
Tomorrow will be .
, % of the Moon is Illuminated

Today's Extremes

State Highs State Lows

Community

WunderPhotos

Upload Photos

1,891,566 photos uploaded!

WunderBlog® & News

Nearby

Air Quality

  Air Quality AQ Index Pollutant
Not available.

Snow Depth

Station Depth Elevation

Earthquake Activity

City Distance Mag. Time & Date
Minimum magnitude displayed is 2.5.

Coastal Water Temperatures

Place Temperature

Stations

Nearby Weather Stations

Station Location Temp. Windchill Dew Point Humidity Wind Precip. Elev Updated Type
                   

Watches & Warnings

There are currently no watches in effect.